Time;durP1;ratioP1;P1;durP2;ratioP2;P2;SDS_P1;SDS_P2;PMS_P1;PMS_P2;Temp;Humidity;BMP_temperature;BMP_pressure;BME280_temperature;BME280_humidity;BME280_pressure;Samples;Min_cycle;Max_cycle;Signal;HPM_P1;HPM_P2
2022/11/01 00:01:43;;;;;;;8.63;2.60;;;;;13.90;94095.00;;;;7397933;19;20156;-77
2022/11/01 00:04:18;;;;;;;8.70;2.75;;;;;14.00;94092.00;;;;7394995;19;20124;-76
2022/11/01 00:06:53;;;;;;;6.45;2.28;;;;;14.00;94091.00;;;;7393951;19;21001;-77
2022/11/01 00:09:34;;;;;;;7.97;2.58;;;;;14.20;94081.00;;;;7396690;19;20476;-78
2022/11/01 00:12:02;;;;;;;10.43;2.67;;;;;14.30;94084.00;;;;7398506;19;20133;-77
2022/11/01 00:14:35;;;;;;;6.25;2.75;;;;;14.30;94084.00;;;;7392831;19;20592;-77
2022/11/01 00:17:03;;;;;;;7.07;2.40;;;;;14.20;94089.00;;;;7393974;19;20588;-77
2022/11/01 00:19:30;;;;;;;12.13;3.45;;;;;14.10;94090.00;;;;7398324;19;20602;-76
2022/11/01 00:22:09;;;;;;;10.65;2.83;;;;;14.20;94081.00;;;;7399334;19;20616;-76
2022/11/01 00:24:36;;;;;;;8.38;2.95;;;;;14.20;94087.00;;;;7394662;19;20531;-75
2022/11/01 00:27:04;;;;;;;14.93;3.38;;;;;14.40;94088.00;;;;7396513;19;20141;-76
2022/11/01 00:29:37;;;;;;;12.10;3.00;;;;;14.40;94093.00;;;;7395503;19;20168;-76
2022/11/01 00:32:05;;;;;;;12.30;2.80;;;;;14.60;94090.00;;;;7395420;19;20204;-76
2022/11/01 00:34:33;;;;;;;10.38;3.20;;;;;14.80;94088.00;;;;7391060;19;20348;-75
2022/11/01 00:37:07;;;;;;;7.32;2.80;;;;;14.70;94089.00;;;;7393696;19;20162;-76
2022/11/01 00:39:35;;;;;;;12.43;2.90;;;;;14.50;94084.00;;;;7395257;19;20452;-76
2022/11/01 00:42:02;;;;;;;9.63;2.70;;;;;14.30;94089.00;;;;7397691;19;20153;-77
2022/11/01 00:44:36;;;;;;;15.07;2.92;;;;;14.10;94092.00;;;;7395407;19;20120;-76
2022/11/01 00:47:04;;;;;;;9.32;3.03;;;;;13.80;94100.00;;;;7392506;19;20132;-76
2022/11/01 00:49:32;;;;;;;9.13;2.92;;;;;13.70;94099.00;;;;7393844;19;20140;-77
2022/11/01 00:52:11;;;;;;;8.10;2.53;;;;;13.70;94094.00;;;;7396364;19;20539;-76
2022/11/01 00:54:43;;;;;;;13.88;2.50;;;;;13.60;94094.00;;;;7395265;19;20754;-76
2022/11/01 00:57:10;;;;;;;6.93;2.75;;;;;13.50;94105.00;;;;7393725;19;20519;-76
2022/11/01 00:59:44;;;;;;;8.55;2.67;;;;;13.40;94107.00;;;;7395737;19;20133;-76
2022/11/01 01:02:14;;;;;;;10.30;2.88;;;;;13.50;94097.00;;;;7393797;19;20139;-77
2022/11/01 01:04:42;;;;;;;6.50;2.67;;;;;13.30;94101.00;;;;7393256;19;20137;-78
2022/11/01 01:07:24;;;;;;;11.25;3.25;;;;;13.40;94101.00;;;;7392993;19;20180;-76
2022/11/01 01:09:52;;;;;;;8.30;2.95;;;;;13.50;94097.00;;;;7396134;19;20168;-76
2022/11/01 01:12:26;;;;;;;15.57;3.25;;;;;13.90;94096.00;;;;7393819;19;20132;-78
2022/11/01 01:14:53;;;;;;;10.70;2.95;;;;;14.00;94101.00;;;;7391320;19;20145;-78
2022/11/01 01:17:21;;;;;;;5.70;2.80;;;;;14.10;94090.00;;;;7394657;19;20124;-77
2022/11/01 01:20:00;;;;;;;8.82;3.38;;;;;14.20;94109.00;;;;7395473;19;20128;-78
2022/11/01 01:22:33;;;;;;;7.78;3.17;;;;;14.20;94106.00;;;;7390795;19;20157;-78
2022/11/01 01:25:10;;;;;;;12.38;2.72;;;;;14.50;94095.00;;;;7393442;19;20142;-76
2022/11/01 01:27:45;;;;;;;10.23;2.90;;;;;14.70;94105.00;;;;7396045;19;20629;-78
2022/11/01 01:30:22;;;;;;;11.93;3.20;;;;;14.90;94103.00;;;;7391357;19;20133;-77
2022/11/01 01:32:50;;;;;;;6.00;2.70;;;;;14.80;94098.00;;;;7391990;19;20205;-77
2022/11/01 01:35:17;;;;;;;12.38;3.10;;;;;14.80;94096.00;;;;7392819;19;20595;-77
2022/11/01 01:37:53;;;;;;;5.45;2.95;;;;;14.80;94093.00;;;;7392987;19;20155;-76
2022/11/01 01:40:21;;;;;;;9.63;2.95;;;;;14.80;94090.00;;;;7390993;19;20638;-76
2022/11/01 01:42:48;;;;;;;11.63;3.15;;;;;15.10;94089.00;;;;7392719;19;20641;-76
2022/11/01 01:45:35;;;;;;;10.73;3.67;;;;;15.20;94095.00;;;;7390936;19;20619;-77
2022/11/01 01:48:11;;;;;;;11.70;3.25;;;;;15.50;94089.00;;;;7393870;19;20160;-76
2022/11/01 01:50:58;;;;;;;12.98;3.10;;;;;15.60;94101.00;;;;7390345;19;20136;-76
2022/11/01 01:53:34;;;;;;;12.15;3.38;;;;;15.60;94101.00;;;;7392351;19;20595;-76
2022/11/01 01:56:10;;;;;;;15.15;3.60;;;;;15.70;94097.00;;;;7393318;19;20145;-75
2022/11/01 01:58:55;;;;;;;15.60;3.83;;;;;15.90;94107.00;;;;7390545;19;20616;-77
2022/11/01 02:01:30;;;;;;;12.45;3.25;;;;;16.10;94113.00;;;;7392258;19;20155;-76
2022/11/01 02:03:58;;;;;;;20.65;3.33;;;;;16.00;94103.00;;;;7394772;19;20749;-76
2022/11/01 02:06:25;;;;;;;11.43;3.22;;;;;16.00;94107.00;;;;7392316;19;20129;-76
2022/11/01 02:09:11;;;;;;;14.40;3.78;;;;;15.90;94099.00;;;;7391208;19;20124;-76
2022/11/01 02:11:39;;;;;;;11.50;3.35;;;;;15.90;94106.00;;;;7393743;19;20133;-76
2022/11/01 02:14:19;;;;;;;5.97;3.20;;;;;16.10;94084.00;;;;7395424;19;20136;-75
2022/11/01 02:16:47;;;;;;;15.55;4.07;;;;;15.90;94101.00;;;;7393120;19;20127;-77
2022/11/01 02:19:36;;;;;;;15.80;3.90;;;;;16.00;94095.00;;;;7390785;19;20153;-77
2022/11/01 02:22:41;;;;;;;9.35;3.67;;;;;16.10;94107.00;;;;7393368;19;20642;-76
2022/11/01 02:25:44;;;;;;;9.98;3.20;;;;;16.10;94102.00;;;;7392876;19;20156;-76
2022/11/01 02:28:48;;;;;;;8.35;2.72;;;;;16.10;94100.00;;;;7390105;19;20488;-77
2022/11/01 02:31:25;;;;;;;7.32;3.08;;;;;15.90;94100.00;;;;7391409;19;20141;-77
2022/11/01 02:34:06;;;;;;;9.65;3.47;;;;;15.80;94105.00;;;;7392994;19;20523;-77
2022/11/01 02:36:38;;;;;;;7.55;3.17;;;;;15.70;94095.00;;;;7389871;19;20599;-79
2022/11/01 02:39:37;;;;;;;12.98;3.47;;;;;15.60;94074.00;;;;7392869;19;20129;-81
2022/11/01 02:42:35;;;;;;;10.00;3.63;;;;;15.60;94093.00;;;;7393416;19;20129;-79
2022/11/01 02:45:28;;;;;;;8.70;3.33;;;;;15.70;94097.00;;;;7392088;19;20140;-79
2022/11/01 02:48:00;;;;;;;14.00;4.10;;;;;15.60;94094.00;;;;7392499;19;20128;-80
2022/11/01 02:50:44;;;;;;;5.05;2.90;;;;;15.60;94106.00;;;;7387271;19;20610;-78
2022/11/01 02:53:11;;;;;;;10.68;3.40;;;;;15.60;94106.00;;;;7389534;19;20139;-78
2022/11/01 02:55:45;;;;;;;9.35;3.55;;;;;15.40;94101.00;;;;7395825;19;20485;-77
2022/11/01 02:58:18;;;;;;;13.95;4.03;;;;;15.50;94094.00;;;;7401884;19;20125;-78
2022/11/01 03:00:46;;;;;;;9.32;4.18;;;;;15.60;94078.00;;;;7396175;19;20208;-79
2022/11/01 03:03:31;;;;;;;12.75;3.92;;;;;15.40;94076.00;;;;7400121;19;20599;-77
2022/11/01 03:06:21;;;;;;;12.43;4.35;;;;;15.40;94082.00;;;;7400038;19;20140;-76
2022/11/01 03:09:14;;;;;;;7.65;3.60;;;;;15.20;94077.00;;;;7395577;19;20173;-79
2022/11/01 03:11:47;;;;;;;12.05;3.63;;;;;15.60;94086.00;;;;7398914;19;20155;-78
2022/11/01 03:14:42;;;;;;;8.95;3.97;;;;;15.60;94104.00;;;;7396320;19;20168;-76
2022/11/01 03:17:15;;;;;;;15.18;4.28;;;;;15.60;94108.00;;;;7397473;19;20166;-76
2022/11/01 03:19:58;;;;;;;11.52;3.40;;;;;15.70;94107.00;;;;7398150;19;20132;-78
2022/11/01 03:22:34;;;;;;;13.27;3.60;;;;;15.70;94112.00;;;;7395751;19;20192;-75
2022/11/01 03:25:41;;;;;;;16.48;4.63;;;;;15.80;94108.00;;;;7397696;19;20540;-77
2022/11/01 03:28:30;;;;;;;15.32;4.20;;;;;15.80;94113.00;;;;7398502;19;20509;-78
2022/11/01 03:31:08;;;;;;;12.82;3.60;;;;;15.60;94130.00;;;;7396916;19;20198;-78
2022/11/01 03:33:47;;;;;;;8.73;3.78;;;;;15.80;94139.00;;;;7399253;19;20129;-77
2022/11/01 03:36:26;;;;;;;8.18;3.28;;;;;15.90;94134.00;;;;7395164;19;20503;-77
2022/11/01 03:39:00;;;;;;;10.40;3.45;;;;;15.80;94135.00;;;;7399025;19;20482;-75
2022/11/01 03:41:45;;;;;;;8.93;3.33;;;;;15.80;94132.00;;;;7398523;19;20554;-76
2022/11/01 03:44:14;;;;;;;10.40;2.83;;;;;15.70;94131.00;;;;7400679;19;20125;-76
2022/11/01 03:46:49;;;;;;;8.70;3.25;;;;;15.90;94135.00;;;;7396714;19;20143;-76
2022/11/01 03:49:18;;;;;;;9.15;3.20;;;;;15.70;94152.00;;;;7398135;19;20500;-76
2022/11/01 03:51:46;;;;;;;5.18;2.80;;;;;15.70;94130.00;;;;7397692;19;20135;-80
2022/11/01 03:54:20;;;;;;;5.60;2.75;;;;;15.70;94135.00;;;;7395760;19;20148;-79
2022/11/01 03:56:48;;;;;;;8.02;2.70;;;;;15.70;94130.00;;;;7395208;19;20496;-80
2022/11/01 03:59:15;;;;;;;10.02;3.13;;;;;15.70;94149.00;;;;7397370;19;20152;-77
2022/11/01 04:01:49;;;;;;;9.15;2.92;;;;;15.70;94161.00;;;;7397365;19;20136;-76
2022/11/01 04:04:17;;;;;;;5.75;2.38;;;;;15.50;94154.00;;;;7395694;19;20155;-76
2022/11/01 04:06:44;;;;;;;6.90;2.38;;;;;15.50;94154.00;;;;7393231;19;20153;-77
2022/11/01 04:09:25;;;;;;;4.65;2.20;;;;;15.60;94143.00;;;;7396644;19;20151;-75
2022/11/01 04:11:52;;;;;;;6.40;1.85;;;;;15.60;94153.00;;;;7398491;19;20188;-76
2022/11/01 04:22:51;;;;;;;4.15;1.73;;;;;15.20;94198.00;;;;7394915;19;20511;-77
2022/11/01 04:25:26;;;;;;;3.55;1.38;;;;;15.30;94215.00;;;;7397154;19;20611;-76
2022/11/01 04:27:55;;;;;;;2.78;1.73;;;;;15.00;94217.00;;;;7396521;19;20172;-79
2022/11/01 04:30:31;;;;;;;3.38;1.40;;;;;15.00;94218.00;;;;7395080;19;20196;-76
2022/11/01 04:33:06;;;;;;;1.63;1.40;;;;;14.70;94210.00;;;;7394581;19;20216;-78
2022/11/01 04:35:36;;;;;;;3.63;1.30;;;;;14.50;94215.00;;;;7396215;19;20161;-76
2022/11/01 04:38:04;;;;;;;2.33;1.42;;;;;14.40;94199.00;;;;7396761;19;20141;-77
2022/11/01 04:40:45;;;;;;;4.60;1.50;;;;;14.30;94197.00;;;;7394060;19;20136;-76
2022/11/01 04:43:15;;;;;;;2.55;1.23;;;;;14.20;94186.00;;;;7397446;19;20120;-80
2022/11/01 04:45:56;;;;;;;3.72;1.65;;;;;14.20;94165.00;;;;7396485;19;20137;-79
2022/11/01 04:48:25;;;;;;;4.78;1.58;;;;;14.20;94187.00;;;;7392549;19;20639;-78
2022/11/01 04:51:01;;;;;;;2.40;1.52;;;;;14.10;94187.00;;;;7395289;19;20163;-79
2022/11/01 04:53:29;;;;;;;2.83;1.25;;;;;14.10;94196.00;;;;7393132;19;20152;-78
2022/11/01 04:55:56;;;;;;;4.10;1.40;;;;;14.10;94201.00;;;;7395829;19;20151;-77
2022/11/01 04:58:32;;;;;;;3.10;1.30;;;;;14.00;94223.00;;;;7392198;19;20135;-76
2022/11/01 05:01:07;;;;;;;2.53;1.23;;;;;13.90;94228.00;;;;7394481;19;20156;-77
2022/11/01 05:03:42;;;;;;;3.67;1.10;;;;;13.90;94247.00;;;;7397643;19;20157;-78
2022/11/01 05:06:09;;;;;;;6.13;1.40;;;;;13.80;94263.00;;;;7397627;19;20846;-78
2022/11/01 05:08:37;;;;;;;1.67;1.50;;;;;13.80;94272.00;;;;7392223;19;20152;-81
2022/11/01 05:11:24;;;;;;;2.17;1.20;;;;;13.80;94281.00;;;;7395028;19;20152;-76
2022/11/01 05:13:51;;;;;;;5.32;1.40;;;;;13.80;94283.00;;;;7394983;19;20154;-75
2022/11/01 05:16:25;;;;;;;5.13;1.35;;;;;13.80;94293.00;;;;7390897;19;20160;-77
2022/11/01 05:18:53;;;;;;;2.10;1.05;;;;;13.80;94286.00;;;;7395172;19;20129;-77
2022/11/01 05:21:25;;;;;;;1.92;1.10;;;;;13.90;94288.00;;;;7385873;19;20152;-77
2022/11/01 05:23:59;;;;;;;2.70;1.10;;;;;13.80;94277.00;;;;7392746;19;20149;-76
2022/11/01 05:26:27;;;;;;;2.58;1.15;;;;;13.80;94267.00;;;;7391052;19;20197;-75
2022/11/01 05:28:55;;;;;;;2.42;1.23;;;;;13.80;94258.00;;;;7394176;19;20168;-75
2022/11/01 05:31:39;;;;;;;0.90;0.90;;;;;13.60;94253.00;;;;7393978;19;20611;-75
2022/11/01 05:34:07;;;;;;;4.97;1.35;;;;;13.70;94247.00;;;;7395055;19;20647;-75
2022/11/01 05:36:41;;;;;;;2.35;1.20;;;;;13.60;94249.00;;;;7392731;19;20504;-75
2022/11/01 05:39:11;;;;;;;1.85;1.00;;;;;13.60;94238.00;;;;7394020;19;20612;-77
2022/11/01 05:41:42;;;;;;;1.25;0.75;;;;;13.60;94229.00;;;;7393760;19;20598;-77
2022/11/01 05:44:16;;;;;;;1.90;1.05;;;;;13.60;94243.00;;;;7392304;19;20133;-77
2022/11/01 05:46:46;;;;;;;0.98;0.90;;;;;13.80;94250.00;;;;7394019;19;20560;-75
2022/11/01 05:49:13;;;;;;;1.30;1.10;;;;;13.70;94254.00;;;;7393464;19;20140;-76
2022/11/01 05:51:47;;;;;;;1.58;0.90;;;;;13.70;94247.00;;;;7393687;19;20144;-79
2022/11/01 05:54:17;;;;;;;2.97;1.00;;;;;13.60;94265.00;;;;7393966;19;20148;-79
2022/11/01 05:56:44;;;;;;;2.97;1.00;;;;;13.60;94271.00;;;;7393094;19;20133;-78
2022/11/01 05:59:18;;;;;;;1.90;0.80;;;;;13.70;94272.00;;;;7394218;19;20152;-76
2022/11/01 06:01:48;;;;;;;1.80;1.10;;;;;13.70;94268.00;;;;7392940;19;20145;-77
2022/11/01 06:04:18;;;;;;;2.05;1.00;;;;;13.80;94275.00;;;;7390848;19;20136;-76
2022/11/01 06:07:06;;;;;;;1.45;0.90;;;;;13.60;94275.00;;;;7392517;19;20632;-78
2022/11/01 06:09:41;;;;;;;1.67;0.90;;;;;13.60;94272.00;;;;7394554;19;20670;-79
2022/11/01 06:12:15;;;;;;;2.33;0.90;;;;;13.60;94281.00;;;;7393284;19;20133;-76
2022/11/01 06:14:47;;;;;;;1.85;0.80;;;;;13.70;94282.00;;;;7391267;19;20569;-75
2022/11/01 06:17:14;;;;;;;1.27;0.95;;;;;13.50;94283.00;;;;7392961;19;20129;-76
2022/11/01 06:19:51;;;;;;;2.42;1.00;;;;;13.60;94286.00;;;;7394260;19;20460;-78
2022/11/01 06:22:21;;;;;;;1.23;0.70;;;;;13.50;94294.00;;;;7389007;19;20161;-75
2022/11/01 06:24:48;;;;;;;0.85;0.75;;;;;13.60;94305.00;;;;7390248;19;20133;-77
2022/11/01 06:27:23;;;;;;;0.80;0.80;;;;;13.50;94311.00;;;;7393115;19;20159;-76
2022/11/01 06:29:51;;;;;;;1.08;0.82;;;;;13.50;94306.00;;;;7394857;19;20147;-75
2022/11/01 06:32:27;;;;;;;1.40;1.02;;;;;13.50;94313.00;;;;7403311;19;20140;-75
2022/11/01 06:35:02;;;;;;;0.80;0.65;;;;;13.50;94315.00;;;;7405752;19;20191;-77
2022/11/01 06:37:30;;;;;;;1.00;0.68;;;;;13.50;94321.00;;;;7408125;19;20133;-75
2022/11/01 06:39:58;;;;;;;0.55;0.55;;;;;13.60;94329.00;;;;7405025;19;20124;-74
2022/11/01 06:42:32;;;;;;;0.75;0.75;;;;;13.50;94320.00;;;;7402577;19;20160;-75
2022/11/01 06:45:00;;;;;;;0.70;0.70;;;;;13.50;94320.00;;;;7406114;19;20612;-75
2022/11/01 06:47:28;;;;;;;0.88;0.70;;;;;13.40;94325.00;;;;7408327;19;20196;-76
2022/11/01 06:50:03;;;;;;;1.08;0.60;;;;;13.50;94334.00;;;;7408342;19;20632;-76
2022/11/01 06:52:32;;;;;;;0.55;0.52;;;;;13.60;94333.00;;;;7401479;19;20148;-74
2022/11/01 06:55:02;;;;;;;0.60;0.60;;;;;13.50;94351.00;;;;7399797;19;20147;-74
2022/11/01 06:57:37;;;;;;;3.45;0.80;;;;;13.60;94348.00;;;;7403294;19;20585;-76
2022/11/01 07:00:07;;;;;;;0.80;0.57;;;;;13.60;94352.00;;;;7405197;19;20153;-75
2022/11/01 07:02:35;;;;;;;0.55;0.40;;;;;13.50;94344.00;;;;7403812;19;20153;-75
2022/11/01 07:05:10;;;;;;;1.17;0.60;;;;;13.60;94341.00;;;;7405044;19;20632;-75
2022/11/01 07:07:44;;;;;;;0.38;0.38;;;;;13.60;94347.00;;;;7404300;19;20231;-75
2022/11/01 07:10:26;;;;;;;0.85;0.65;;;;;13.60;94348.00;;;;7403286;19;20498;-75
2022/11/01 07:12:59;;;;;;;0.95;0.50;;;;;13.60;94349.00;;;;7404965;19;20541;-74
2022/11/01 07:15:34;;;;;;;1.10;0.55;;;;;13.60;94351.00;;;;7405888;19;20136;-75
2022/11/01 07:18:04;;;;;;;0.55;0.50;;;;;13.70;94341.00;;;;7404350;19;20212;-76
2022/11/01 07:20:39;;;;;;;0.40;0.35;;;;;13.60;94346.00;;;;7403970;19;20144;-76
2022/11/01 07:23:21;;;;;;;2.28;0.60;;;;;13.60;94344.00;;;;7404369;19;20144;-76
2022/11/01 07:26:02;;;;;;;1.23;0.40;;;;;13.70;94352.00;;;;7403074;19;20132;-75
2022/11/01 07:28:38;;;;;;;1.08;0.80;;;;;13.50;94365.00;;;;7400172;19;20183;-76
2022/11/01 07:31:09;;;;;;;0.50;0.50;;;;;13.60;94355.00;;;;7404373;19;20125;-75
2022/11/01 07:33:36;;;;;;;3.22;1.00;;;;;13.70;94350.00;;;;7406128;19;20147;-77
2022/11/01 07:36:10;;;;;;;1.17;0.85;;;;;13.60;94352.00;;;;7406194;19;21452;-78
2022/11/01 07:38:38;;;;;;;0.60;0.50;;;;;13.70;94371.00;;;;7401473;19;20515;-75
2022/11/01 07:41:06;;;;;;;0.88;0.55;;;;;13.70;94376.00;;;;7404191;19;20503;-74
2022/11/01 07:43:40;;;;;;;0.98;0.70;;;;;13.60;94373.00;;;;7396536;19;20205;-74
2022/11/01 07:46:08;;;;;;;2.03;0.70;;;;;13.70;94378.00;;;;7401219;19;20125;-74
2022/11/01 07:48:36;;;;;;;1.00;0.90;;;;;13.60;94373.00;;;;7394769;19;20137;-75
2022/11/01 07:51:11;;;;;;;2.03;0.65;;;;;13.70;94386.00;;;;7395689;19;20227;-76
2022/11/01 07:53:40;;;;;;;0.80;0.80;;;;;13.80;94389.00;;;;7400903;19;20141;-75
2022/11/01 07:56:09;;;;;;;0.85;0.80;;;;;13.70;94392.00;;;;7399812;19;20129;-76
2022/11/01 07:58:44;;;;;;;1.10;0.80;;;;;13.70;94396.00;;;;7393311;19;20211;-76
2022/11/01 08:01:12;;;;;;;0.85;0.60;;;;;13.80;94406.00;;;;7397881;19;20125;-74
2022/11/01 08:03:40;;;;;;;1.05;0.57;;;;;13.60;94398.00;;;;7398760;19;20336;-75
2022/11/01 08:06:17;;;;;;;0.55;0.55;;;;;13.30;94424.00;;;;7400106;19;20500;-75
2022/11/01 08:08:59;;;;;;;0.75;0.68;;;;;13.00;94412.00;;;;7397258;19;20172;-74
2022/11/01 08:11:34;;;;;;;0.45;0.45;;;;;12.70;94416.00;;;;7400337;19;20141;-79
2022/11/01 08:14:04;;;;;;;0.82;0.68;;;;;12.40;94417.00;;;;7401361;19;20146;-77
2022/11/01 08:16:36;;;;;;;4.50;0.82;;;;;12.30;94417.00;;;;7406737;19;20246;-79
2022/11/01 08:19:10;;;;;;;2.47;1.20;;;;;12.40;94428.00;;;;7425438;19;20160;-78
2022/11/01 08:21:38;;;;;;;4.38;1.27;;;;;12.40;94423.00;;;;7407195;19;20154;-78
2022/11/01 08:24:09;;;;;;;2.45;1.15;;;;;12.40;94419.00;;;;7407332;19;20149;-78
2022/11/01 08:26:43;;;;;;;1.70;1.15;;;;;12.50;94428.00;;;;7398085;19;20164;-78
2022/11/01 08:29:11;;;;;;;3.60;1.30;;;;;12.40;94428.00;;;;7420591;19;20176;-77
2022/11/01 08:31:40;;;;;;;3.10;1.20;;;;;12.60;94425.00;;;;7419613;19;20140;-80
2022/11/01 08:34:14;;;;;;;3.13;1.00;;;;;12.70;94425.00;;;;7420843;19;20175;-76
2022/11/01 08:36:45;;;;;;;1.98;1.00;;;;;12.80;94413.00;;;;7422257;19;20153;-79
2022/11/01 08:39:13;;;;;;;2.08;0.90;;;;;13.00;94408.00;;;;7415891;19;20161;-77
2022/11/01 08:41:48;;;;;;;1.90;0.93;;;;;13.20;94403.00;;;;7424132;19;20128;-78
2022/11/01 08:44:18;;;;;;;1.73;1.13;;;;;13.40;94397.00;;;;7394909;19;20217;-79
2022/11/01 08:46:46;;;;;;;1.33;0.95;;;;;13.50;94393.00;;;;7400836;19;20154;-78
2022/11/01 08:49:20;;;;;;;6.32;2.00;;;;;13.50;94395.00;;;;7399370;19;20148;-79
2022/11/01 08:51:48;;;;;;;3.35;0.93;;;;;13.60;94393.00;;;;7399504;19;20613;-79
2022/11/01 08:54:16;;;;;;;3.83;1.00;;;;;14.00;94395.00;;;;7396139;19;20152;-76
2022/11/01 08:56:50;;;;;;;3.83;0.90;;;;;14.90;94377.00;;;;7398107;19;20155;-76
2022/11/01 08:59:23;;;;;;;2.92;1.30;;;;;16.10;94380.00;;;;7393423;19;20626;-77
2022/11/01 09:01:51;;;;;;;1.70;0.75;;;;;16.40;94391.00;;;;7396664;19;20175;-77
2022/11/01 09:04:26;;;;;;;2.72;1.38;;;;;16.30;94393.00;;;;7397334;19;20152;-77
2022/11/01 09:06:57;;;;;;;2.33;1.27;;;;;15.60;94403.00;;;;7393897;19;20145;-76
2022/11/01 09:09:25;;;;;;;4.35;1.20;;;;;16.00;94375.00;;;;7393582;19;20156;-75
2022/11/01 09:12:02;;;;;;;2.60;1.10;;;;;16.70;94382.00;;;;7399445;19;20155;-76
2022/11/01 09:14:30;;;;;;;2.75;1.10;;;;;17.30;94383.00;;;;7394157;19;20137;-76
2022/11/01 09:16:58;;;;;;;1.33;0.68;;;;;18.10;94399.00;;;;7392355;19;20155;-75
2022/11/01 09:19:33;;;;;;;2.40;0.90;;;;;17.50;94407.00;;;;7391764;19;20147;-77
2022/11/01 09:22:01;;;;;;;2.17;0.73;;;;;16.70;94413.00;;;;7394051;19;20146;-78
2022/11/01 09:24:29;;;;;;;1.83;1.10;;;;;16.30;94407.00;;;;7395243;19;20152;-75
2022/11/01 09:27:05;;;;;;;3.60;0.80;;;;;15.60;94414.00;;;;7394830;19;20152;-78
2022/11/01 09:29:33;;;;;;;1.73;1.17;;;;;15.60;94422.00;;;;7391338;19;20148;-75
2022/11/01 09:32:02;;;;;;;2.85;1.02;;;;;15.60;94425.00;;;;7395746;19;20124;-77
2022/11/01 09:34:37;;;;;;;3.35;1.10;;;;;15.60;94413.00;;;;7396130;19;20156;-76
2022/11/01 09:37:06;;;;;;;2.65;1.10;;;;;16.20;94414.00;;;;7394083;19;20132;-77
2022/11/01 09:39:34;;;;;;;2.17;1.00;;;;;16.50;94424.00;;;;7392916;19;20173;-77
2022/11/01 09:42:18;;;;;;;1.98;1.20;;;;;16.80;94415.00;;;;7393456;19;20138;-77
2022/11/01 09:44:48;;;;;;;2.33;1.13;;;;;17.10;94421.00;;;;7396140;19;20533;-78
2022/11/01 09:47:27;;;;;;;2.83;1.23;;;;;16.70;94422.00;;;;7393405;19;20137;-77
2022/11/01 09:50:23;;;;;;;2.90;1.20;;;;;16.60;94432.00;;;;7398080;19;20133;-78
2022/11/01 09:52:59;;;;;;;2.40;1.33;;;;;15.90;94435.00;;;;7396878;19;20207;-78
2022/11/01 09:55:47;;;;;;;4.63;1.02;;;;;16.00;94438.00;;;;7397453;19;20148;-79
2022/11/01 09:58:43;;;;;;;1.80;1.27;;;;;15.40;94440.00;;;;7392800;19;20183;-79
2022/11/01 10:01:26;;;;;;;6.22;1.27;;;;;15.80;94441.00;;;;7398654;19;20500;-79
2022/11/01 10:04:24;;;;;;;3.95;1.20;;;;;16.40;94445.00;;;;7397685;19;20156;-79
2022/11/01 10:07:01;;;;;;;2.28;1.40;;;;;16.60;94445.00;;;;7390192;19;20576;-78
2022/11/01 10:09:51;;;;;;;5.63;1.30;;;;;16.50;94449.00;;;;7391355;19;20228;-78
2022/11/01 10:12:19;;;;;;;4.63;1.63;;;;;16.50;94466.00;;;;7393623;19;20152;-79
2022/11/01 10:15:27;;;;;;;2.10;1.20;;;;;15.90;94464.00;;;;7393464;19;20165;-79
2022/11/01 10:17:58;;;;;;;4.95;1.60;;;;;16.40;94455.00;;;;7393285;19;20145;-79
2022/11/01 10:20:38;;;;;;;2.85;0.98;;;;;16.80;94450.00;;;;7393307;19;20169;-77
2022/11/01 10:23:07;;;;;;;3.33;1.33;;;;;16.70;94434.00;;;;7389402;19;20143;-78
2022/11/01 10:25:47;;;;;;;3.25;1.17;;;;;17.30;94440.00;;;;7391474;19;20573;-79
2022/11/01 10:28:15;;;;;;;3.42;1.70;;;;;18.10;94442.00;;;;7390029;19;20159;-78
2022/11/01 10:31:13;;;;;;;2.83;1.42;;;;;18.40;94440.00;;;;7393372;19;20161;-78
2022/11/01 10:33:46;;;;;;;2.22;1.20;;;;;18.30;94434.00;;;;7392593;19;20192;-78
2022/11/01 10:36:33;;;;;;;5.30;1.52;;;;;19.20;94428.00;;;;7391571;19;20272;-78
2022/11/01 10:39:30;;;;;;;3.95;1.55;;;;;19.30;94420.00;;;;7390343;19;20619;-78
2022/11/01 10:42:27;;;;;;;2.30;1.10;;;;;18.90;94425.00;;;;7389933;19;20133;-78
2022/11/01 10:44:59;;;;;;;3.58;1.35;;;;;19.40;94415.00;;;;7390899;19;20125;-79
2022/11/01 10:47:35;;;;;;;2.33;1.02;;;;;18.40;94447.00;;;;7388755;19;20143;-78
2022/11/01 10:50:11;;;;;;;3.25;1.02;;;;;17.80;94432.00;;;;7390917;19;20160;-79
2022/11/01 10:52:58;;;;;;;3.50;1.35;;;;;19.00;94444.00;;;;7388638;19;20527;-79
2022/11/01 10:55:43;;;;;;;4.50;1.65;;;;;18.10;94453.00;;;;7389164;19;20152;-76
2022/11/01 10:58:35;;;;;;;3.13;1.40;;;;;17.60;94450.00;;;;7388214;19;20156;-77
2022/11/01 11:01:06;;;;;;;4.57;1.38;;;;;16.90;94461.00;;;;7388652;19;20172;-79
2022/11/01 11:03:44;;;;;;;3.88;1.30;;;;;16.90;94466.00;;;;7389943;19;20177;-78
2022/11/01 11:06:16;;;;;;;4.32;1.55;;;;;16.50;94463.00;;;;7389560;19;20133;-77
2022/11/01 11:08:48;;;;;;;2.42;1.40;;;;;17.10;94458.00;;;;7388018;19;20836;-78
2022/11/01 11:11:35;;;;;;;6.25;1.63;;;;;16.80;94457.00;;;;7388259;19;20128;-78
2022/11/01 11:14:07;;;;;;;4.43;1.65;;;;;16.30;94457.00;;;;7386988;19;20153;-79
2022/11/01 11:16:56;;;;;;;2.75;1.50;;;;;16.00;94463.00;;;;7391722;19;20133;-78
2022/11/01 11:19:32;;;;;;;3.33;1.42;;;;;15.90;94461.00;;;;7395405;19;20216;-76
2022/11/01 11:22:08;;;;;;;3.00;1.50;;;;;15.50;94472.00;;;;7400118;19;20146;-78
2022/11/01 11:24:42;;;;;;;3.72;1.50;;;;;15.70;94463.00;;;;7396741;19;20149;-80
2022/11/01 11:27:29;;;;;;;2.55;1.40;;;;;15.50;94477.00;;;;7392607;19;20156;-77
2022/11/01 11:30:07;;;;;;;4.90;1.60;;;;;15.50;94472.00;;;;7393661;19;20192;-78
2022/11/01 11:32:47;;;;;;;6.57;1.88;;;;;15.60;94471.00;;;;7394291;19;20489;-78
2022/11/01 11:35:19;;;;;;;3.38;1.30;;;;;16.30;94464.00;;;;7392938;19;20162;-79
2022/11/01 11:38:01;;;;;;;4.65;1.30;;;;;16.00;94468.00;;;;7392435;19;20161;-79
2022/11/01 11:40:39;;;;;;;3.28;1.73;;;;;15.90;94477.00;;;;7392545;19;20186;-77
2022/11/01 11:43:35;;;;;;;6.78;1.70;;;;;16.00;94470.00;;;;7396325;19;20135;-77
2022/11/01 11:46:08;;;;;;;5.53;1.65;;;;;16.20;94464.00;;;;7394659;19;20176;-77
2022/11/01 11:48:55;;;;;;;4.55;1.80;;;;;16.70;94439.00;;;;7392128;19;20518;-78
2022/11/01 11:51:27;;;;;;;3.70;1.38;;;;;17.80;94450.00;;;;7395873;19;20137;-78
2022/11/01 11:54:06;;;;;;;3.63;1.35;;;;;18.60;94426.00;;;;7394775;19;20200;-77
2022/11/01 11:56:34;;;;;;;3.70;1.60;;;;;19.70;94464.00;;;;7393093;19;20141;-78
2022/11/01 11:59:30;;;;;;;1.98;1.30;;;;;19.20;94459.00;;;;7392004;19;20136;-79
2022/11/01 12:02:03;;;;;;;3.90;1.38;;;;;18.90;94459.00;;;;7393238;19;20172;-78
2022/11/01 12:04:50;;;;;;;5.85;1.75;;;;;19.00;94444.00;;;;7393403;19;20167;-78
2022/11/01 12:07:33;;;;;;;5.03;1.52;;;;;17.20;94437.00;;;;7397708;19;20158;-79
2022/11/01 12:10:34;;;;;;;3.55;1.60;;;;;18.40;94461.00;;;;7391197;19;20173;-79
2022/11/01 12:13:03;;;;;;;3.65;1.45;;;;;17.30;94470.00;;;;7392057;19;20153;-77
2022/11/01 12:15:37;;;;;;;3.55;1.38;;;;;16.00;94468.00;;;;7392126;19;20156;-78
2022/11/01 12:18:16;;;;;;;3.67;1.30;;;;;16.20;94468.00;;;;7391229;19;20125;-78
2022/11/01 12:20:53;;;;;;;2.28;1.30;;;;;16.30;94472.00;;;;7393163;19;20598;-78
2022/11/01 12:23:25;;;;;;;4.35;1.77;;;;;16.30;94463.00;;;;7391809;19;20137;-77
2022/11/01 12:26:05;;;;;;;6.88;1.88;;;;;16.30;94474.00;;;;7392856;19;20148;-79
2022/11/01 12:28:46;;;;;;;11.15;2.00;;;;;16.20;94472.00;;;;7389209;19;20176;-76
2022/11/01 12:31:22;;;;;;;5.45;1.90;;;;;16.70;94461.00;;;;7393015;19;20137;-77
2022/11/01 12:34:13;;;;;;;4.07;1.35;;;;;17.70;94450.00;;;;7391883;19;20607;-79
2022/11/01 12:36:57;;;;;;;3.38;1.55;;;;;17.90;94466.00;;;;7392821;19;20136;-78
2022/11/01 12:39:54;;;;;;;2.95;1.25;;;;;17.60;94453.00;;;;7388468;19;20147;-78
2022/11/01 12:42:45;;;;;;;2.97;1.30;;;;;18.10;94456.00;;;;7395028;19;20167;-77
2022/11/01 12:46:00;;;;;;;6.80;1.42;;;;;17.90;94457.00;;;;7393616;19;20742;-78
2022/11/01 12:48:49;;;;;;;4.57;1.35;;;;;18.90;94444.00;;;;7395664;19;20176;-77
2022/11/01 12:51:30;;;;;;;6.00;1.42;;;;;18.50;94439.00;;;;7394818;19;20634;-77
2022/11/01 12:54:21;;;;;;;3.80;1.50;;;;;18.80;94460.00;;;;7392465;19;20152;-78
2022/11/01 12:56:52;;;;;;;3.92;1.30;;;;;17.70;94470.00;;;;7396699;19;20157;-77
2022/11/01 12:59:37;;;;;;;3.80;1.30;;;;;16.40;94474.00;;;;7395377;19;20148;-77
2022/11/01 13:02:08;;;;;;;5.43;1.42;;;;;16.10;94469.00;;;;7389749;19;20132;-77
2022/11/01 13:05:17;;;;;;;2.97;1.33;;;;;15.50;94476.00;;;;7391925;19;20152;-78
2022/11/01 13:08:00;;;;;;;3.38;1.50;;;;;15.70;94474.00;;;;7390902;19;20495;-78